Time;durP1;ratioP1;P1;durP2;ratioP2;P2;SDS_P1;SDS_P2;PMS_P1;PMS_P2;Temp;Humidity;BMP_temperature;BMP_pressure;BME280_temperature;BME280_humidity;BME280_pressure;Samples;Min_cycle;Max_cycle;Signal;HPM_P1;HPM_P2
2022/03/08 00:01:57;;;;;;;4.20;1.92;;;;;;;;;;5103383;28;20027;-57
2022/03/08 00:04:24;;;;;;;5.20;1.77;;;;;;;;;;5102054;28;20106;-58
2022/03/08 00:06:49;;;;;;;4.78;2.88;;;;;;;;;;5094946;28;20020;-57
2022/03/08 00:09:14;;;;;;;3.00;1.83;;;;;;;;;;5106274;28;20031;-58
2022/03/08 00:11:40;;;;;;;3.92;2.28;;;;;;;;;;5092638;28;20023;-58
2022/03/08 00:14:05;;;;;;;2.65;1.98;;;;;;;;;;5113746;28;20031;-57
2022/03/08 00:16:30;;;;;;;3.10;2.30;;;;;;;;;;5114757;28;20035;-57
2022/03/08 00:18:55;;;;;;;2.47;1.67;;;;;;;;;;5114119;28;20095;-57
2022/03/08 00:21:21;;;;;;;2.88;1.80;;;;;;;;;;5114546;28;20035;-57
2022/03/08 00:23:47;;;;;;;3.22;2.15;;;;;;;;;;5109984;28;20414;-57
2022/03/08 00:26:12;;;;;;;2.47;2.10;;;;;;;;;;5113604;28;20120;-57
2022/03/08 00:28:37;;;;;;;3.13;1.90;;;;;;;;;;5114081;28;20035;-57
2022/03/08 00:31:02;;;;;;;2.75;1.75;;;;;;;;;;5114486;28;20028;-57
2022/03/08 00:33:28;;;;;;;2.55;1.73;;;;;;;;;;5112446;28;20032;-57
2022/03/08 00:35:53;;;;;;;3.38;2.30;;;;;;;;;;5113968;28;20028;-57
2022/03/08 00:38:19;;;;;;;2.60;1.85;;;;;;;;;;5114244;28;20024;-56
2022/03/08 00:40:44;;;;;;;2.33;1.35;;;;;;;;;;5114127;28;20387;-56
2022/03/08 00:43:10;;;;;;;2.10;1.65;;;;;;;;;;5112151;28;20016;-56
2022/03/08 00:45:35;;;;;;;2.72;1.60;;;;;;;;;;5114332;28;20027;-56
2022/03/08 00:48:00;;;;;;;2.60;2.03;;;;;;;;;;5112847;28;20114;-57
2022/03/08 00:50:27;;;;;;;2.30;1.85;;;;;;;;;;5113035;28;20055;-58
2022/03/08 00:52:53;;;;;;;3.78;1.70;;;;;;;;;;5114226;28;20058;-58
2022/03/08 00:55:19;;;;;;;2.60;1.67;;;;;;;;;;5107805;28;20457;-55
2022/03/08 00:57:44;;;;;;;3.47;1.92;;;;;;;;;;5113811;28;20096;-57
2022/03/08 01:00:11;;;;;;;2.30;1.70;;;;;;;;;;5111804;28;20036;-57
2022/03/08 01:02:37;;;;;;;2.30;1.50;;;;;;;;;;5100133;28;20379;-57
2022/03/08 01:05:02;;;;;;;2.25;1.58;;;;;;;;;;5109185;28;20024;-57
2022/03/08 01:07:27;;;;;;;2.45;1.63;;;;;;;;;;5109630;28;20027;-58
2022/03/08 01:09:52;;;;;;;2.83;2.08;;;;;;;;;;5095460;28;20028;-58
2022/03/08 01:12:18;;;;;;;1.88;1.75;;;;;;;;;;5113691;28;20059;-57
2022/03/08 01:14:43;;;;;;;2.53;1.60;;;;;;;;;;5112274;28;20024;-57
2022/03/08 01:17:08;;;;;;;2.17;1.88;;;;;;;;;;5093530;28;20424;-57
2022/03/08 01:19:33;;;;;;;3.53;2.70;;;;;;;;;;5092613;28;20020;-58
2022/03/08 01:21:59;;;;;;;2.50;1.90;;;;;;;;;;5093168;28;20030;-55
2022/03/08 01:24:24;;;;;;;4.28;2.25;;;;;;;;;;5097991;28;20058;-57
2022/03/08 01:26:49;;;;;;;3.15;2.08;;;;;;;;;;5112040;28;20019;-56
2022/03/08 01:29:14;;;;;;;2.95;2.25;;;;;;;;;;5112470;28;20448;-58
2022/03/08 01:31:39;;;;;;;2.10;1.63;;;;;;;;;;5113332;28;20031;-57
2022/03/08 01:34:05;;;;;;;2.53;1.60;;;;;;;;;;5111696;28;20033;-58
2022/03/08 01:36:30;;;;;;;3.00;2.05;;;;;;;;;;5106219;28;20027;-57
2022/03/08 01:38:55;;;;;;;2.38;1.77;;;;;;;;;;5092653;28;20028;-58
2022/03/08 01:41:20;;;;;;;1.83;1.60;;;;;;;;;;5098331;28;20112;-58
2022/03/08 01:43:46;;;;;;;2.55;1.67;;;;;;;;;;5112832;28;20066;-58
2022/03/08 01:46:12;;;;;;;2.78;2.33;;;;;;;;;;5111299;28;20098;-57
2022/03/08 01:48:37;;;;;;;2.60;2.10;;;;;;;;;;5095376;28;20035;-58
2022/03/08 01:51:02;;;;;;;2.42;1.92;;;;;;;;;;5092472;28;20023;-58
2022/03/08 01:53:28;;;;;;;3.70;2.05;;;;;;;;;;5104511;28;20039;-58
2022/03/08 01:55:53;;;;;;;2.92;2.15;;;;;;;;;;5110183;28;20066;-57
2022/03/08 01:58:18;;;;;;;3.67;2.90;;;;;;;;;;5110195;28;20065;-58
2022/03/08 02:00:44;;;;;;;2.55;1.95;;;;;;;;;;5112655;28;20417;-57
2022/03/08 02:03:09;;;;;;;2.70;1.73;;;;;;;;;;5112161;28;20012;-58
2022/03/08 02:05:34;;;;;;;2.75;2.15;;;;;;;;;;5112286;28;20507;-56
2022/03/08 02:08:00;;;;;;;2.20;1.70;;;;;;;;;;5111722;28;20090;-58
2022/03/08 02:10:25;;;;;;;3.95;2.38;;;;;;;;;;5109566;28;20110;-57
2022/03/08 02:12:50;;;;;;;2.67;1.80;;;;;;;;;;5105841;28;20036;-57
2022/03/08 02:15:20;;;;;;;2.65;1.67;;;;;;;;;;5102525;28;20455;-56
2022/03/08 02:17:45;;;;;;;2.55;1.98;;;;;;;;;;5112136;28;20024;-58
2022/03/08 02:20:11;;;;;;;2.25;2.05;;;;;;;;;;5110822;28;20471;-58
2022/03/08 02:22:36;;;;;;;2.75;2.22;;;;;;;;;;5112322;28;20110;-58
2022/03/08 02:25:02;;;;;;;2.53;1.73;;;;;;;;;;5102665;28;20114;-57
2022/03/08 02:27:28;;;;;;;4.57;1.80;;;;;;;;;;5112388;28;20472;-58
2022/03/08 02:29:53;;;;;;;2.35;1.98;;;;;;;;;;5109011;28;20038;-57
2022/03/08 02:32:18;;;;;;;2.28;2.03;;;;;;;;;;5109957;28;20027;-58
2022/03/08 02:34:43;;;;;;;2.05;1.73;;;;;;;;;;5111738;28;20024;-58
2022/03/08 02:37:11;;;;;;;2.35;1.92;;;;;;;;;;5112509;28;20020;-57
2022/03/08 02:39:36;;;;;;;1.98;1.77;;;;;;;;;;5100934;28;20110;-58
2022/03/08 02:42:02;;;;;;;3.13;1.77;;;;;;;;;;5111701;28;20114;-56
2022/03/08 02:44:27;;;;;;;2.38;2.08;;;;;;;;;;5111432;28;20107;-58
2022/03/08 02:46:53;;;;;;;2.70;1.73;;;;;;;;;;5112577;28;20023;-56
2022/03/08 02:49:18;;;;;;;3.17;2.17;;;;;;;;;;5110494;28;20023;-56
2022/03/08 02:51:43;;;;;;;2.10;1.73;;;;;;;;;;5096216;28;20032;-57
2022/03/08 02:54:08;;;;;;;2.10;1.90;;;;;;;;;;5104139;28;20039;-58
2022/03/08 02:56:34;;;;;;;2.67;2.20;;;;;;;;;;5111393;28;20400;-57
2022/03/08 02:59:00;;;;;;;2.40;1.73;;;;;;;;;;5110654;28;20024;-58
2022/03/08 03:01:25;;;;;;;4.68;2.10;;;;;;;;;;5102746;28;20376;-58
2022/03/08 03:03:51;;;;;;;2.95;2.75;;;;;;;;;;5098005;28;20503;-58
2022/03/08 03:06:16;;;;;;;3.13;2.83;;;;;;;;;;5106199;28;20899;-58
2022/03/08 03:08:41;;;;;;;2.88;2.22;;;;;;;;;;5112052;28;20396;-57
2022/03/08 03:11:07;;;;;;;4.15;2.20;;;;;;;;;;5109623;28;20114;-58
2022/03/08 03:13:32;;;;;;;2.10;1.90;;;;;;;;;;5110142;28;20028;-57
2022/03/08 03:15:57;;;;;;;2.17;1.95;;;;;;;;;;5110728;28;20433;-57
2022/03/08 03:18:22;;;;;;;2.28;1.80;;;;;;;;;;5111913;28;20527;-57
2022/03/08 03:20:47;;;;;;;4.28;2.42;;;;;;;;;;5100385;28;20016;-58
2022/03/08 03:23:13;;;;;;;2.22;2.00;;;;;;;;;;5108789;28;20357;-56
2022/03/08 03:25:38;;;;;;;2.97;1.90;;;;;;;;;;5108869;28;20031;-57
2022/03/08 03:28:03;;;;;;;2.22;1.88;;;;;;;;;;5114859;28;20443;-57
2022/03/08 03:30:28;;;;;;;2.60;2.22;;;;;;;;;;5112219;28;20476;-57
2022/03/08 03:32:53;;;;;;;2.08;1.88;;;;;;;;;;5105037;28;20062;-57
2022/03/08 03:35:19;;;;;;;3.88;2.60;;;;;;;;;;5114718;28;20106;-56
2022/03/08 03:37:44;;;;;;;2.17;1.88;;;;;;;;;;5114381;28;20064;-58
2022/03/08 03:40:10;;;;;;;2.30;1.55;;;;;;;;;;5112681;28;20476;-57
2022/03/08 03:42:36;;;;;;;2.75;2.17;;;;;;;;;;5115331;28;20012;-57
2022/03/08 03:45:02;;;;;;;2.40;2.10;;;;;;;;;;5114819;28;20392;-58
2022/03/08 03:47:27;;;;;;;2.65;2.45;;;;;;;;;;5115556;28;20065;-56
2022/03/08 03:49:52;;;;;;;1.98;1.75;;;;;;;;;;5110226;28;20027;-57
2022/03/08 03:52:17;;;;;;;2.72;1.95;;;;;;;;;;5110035;28;20526;-58
2022/03/08 03:54:42;;;;;;;2.10;1.85;;;;;;;;;;5107011;28;20031;-56
2022/03/08 03:57:09;;;;;;;1.73;1.55;;;;;;;;;;5113157;28;20052;-57
2022/03/08 03:59:34;;;;;;;2.03;1.77;;;;;;;;;;5112791;28;20024;-57
2022/03/08 04:01:59;;;;;;;2.10;1.73;;;;;;;;;;5112322;28;20019;-57
2022/03/08 04:04:24;;;;;;;1.58;1.48;;;;;;;;;;5113736;28;20019;-56
2022/03/08 04:06:50;;;;;;;1.90;1.60;;;;;;;;;;5115020;28;20020;-56
2022/03/08 04:09:15;;;;;;;2.15;1.95;;;;;;;;;;5114842;28;20054;-57
2022/03/08 04:11:40;;;;;;;1.80;1.48;;;;;;;;;;5111330;28;20023;-56
2022/03/08 04:14:05;;;;;;;2.28;1.55;;;;;;;;;;5114498;28;20027;-57
2022/03/08 04:16:30;;;;;;;1.83;1.55;;;;;;;;;;5114382;28;20045;-57
2022/03/08 04:18:56;;;;;;;2.03;1.83;;;;;;;;;;5114222;28;20079;-57
2022/03/08 04:21:21;;;;;;;2.88;2.67;;;;;;;;;;5111376;27;20023;-57
2022/03/08 04:23:46;;;;;;;1.70;1.55;;;;;;;;;;5095971;28;20019;-56
2022/03/08 04:26:12;;;;;;;1.58;1.48;;;;;;;;;;5113501;28;20114;-55
2022/03/08 04:28:37;;;;;;;2.10;1.60;;;;;;;;;;5110901;27;20032;-57
2022/03/08 04:31:02;;;;;;;1.80;1.63;;;;;;;;;;5103614;28;20434;-56
2022/03/08 04:33:27;;;;;;;1.77;1.63;;;;;;;;;;5113538;28;20455;-57
2022/03/08 04:35:53;;;;;;;2.90;1.90;;;;;;;;;;5096980;28;20016;-57
2022/03/08 04:38:18;;;;;;;2.63;1.80;;;;;;;;;;5094049;28;20028;-58
2022/03/08 04:40:43;;;;;;;1.40;1.30;;;;;;;;;;5107893;28;20069;-57
2022/03/08 04:43:08;;;;;;;1.70;1.60;;;;;;;;;;5114260;28;20047;-58
2022/03/08 04:45:33;;;;;;;2.22;2.03;;;;;;;;;;5112901;28;20012;-57
2022/03/08 04:47:59;;;;;;;2.63;1.40;;;;;;;;;;5112689;28;20473;-54
2022/03/08 04:50:24;;;;;;;2.88;1.63;;;;;;;;;;5110180;28;20479;-57
2022/03/08 04:52:49;;;;;;;3.33;1.80;;;;;;;;;;5096947;28;20380;-57
2022/03/08 04:55:15;;;;;;;3.45;2.03;;;;;;;;;;5105526;28;20275;-57
2022/03/08 04:57:40;;;;;;;2.15;1.67;;;;;;;;;;5113769;28;20046;-58
2022/03/08 05:00:07;;;;;;;3.38;2.05;;;;;;;;;;5112673;28;20130;-57
2022/03/08 05:02:32;;;;;;;2.15;1.95;;;;;;;;;;5108620;28;20020;-57
2022/03/08 05:04:57;;;;;;;2.72;1.88;;;;;;;;;;5093885;28;20127;-56
2022/03/08 05:07:23;;;;;;;3.20;1.50;;;;;;;;;;5113777;28;20495;-57
2022/03/08 05:09:48;;;;;;;2.95;1.90;;;;;;;;;;5113687;28;20019;-57
2022/03/08 05:12:13;;;;;;;3.58;2.38;;;;;;;;;;5111084;28;20057;-57
2022/03/08 05:14:39;;;;;;;2.45;1.80;;;;;;;;;;5113513;28;20484;-53
2022/03/08 05:17:04;;;;;;;1.80;1.60;;;;;;;;;;5114009;28;20047;-57
2022/03/08 05:19:29;;;;;;;2.42;2.22;;;;;;;;;;5112266;28;20177;-57
2022/03/08 05:21:55;;;;;;;1.92;1.70;;;;;;;;;;5102512;28;20030;-57
2022/03/08 05:24:20;;;;;;;2.28;2.00;;;;;;;;;;5108751;28;20022;-56
2022/03/08 05:26:45;;;;;;;2.88;1.70;;;;;;;;;;5112938;28;20028;-56
2022/03/08 05:29:10;;;;;;;1.98;1.70;;;;;;;;;;5101355;28;20066;-57
2022/03/08 05:31:35;;;;;;;2.58;2.38;;;;;;;;;;5111709;28;20032;-58
2022/03/08 05:34:01;;;;;;;3.03;1.92;;;;;;;;;;5093945;28;20480;-57
2022/03/08 05:36:26;;;;;;;2.15;1.95;;;;;;;;;;5092570;28;20110;-56
2022/03/08 05:38:52;;;;;;;3.10;2.70;;;;;;;;;;5098616;28;20054;-57
2022/03/08 05:41:17;;;;;;;1.85;1.73;;;;;;;;;;5112339;28;20023;-56
2022/03/08 05:43:42;;;;;;;2.38;1.90;;;;;;;;;;5111049;28;20512;-57
2022/03/08 05:46:07;;;;;;;2.20;2.03;;;;;;;;;;5113226;28;20377;-56
2022/03/08 05:48:32;;;;;;;3.13;2.55;;;;;;;;;;5110920;28;20019;-56
2022/03/08 05:50:58;;;;;;;2.95;2.22;;;;;;;;;;5111960;28;20031;-57
2022/03/08 05:53:23;;;;;;;2.75;2.55;;;;;;;;;;5107956;28;20023;-55
2022/03/08 05:55:48;;;;;;;3.08;2.78;;;;;;;;;;5108269;28;20040;-56
2022/03/08 05:58:13;;;;;;;3.03;2.30;;;;;;;;;;5111081;28;20030;-57
2022/03/08 06:00:39;;;;;;;3.28;2.10;;;;;;;;;;5110763;28;20467;-57
2022/03/08 06:03:04;;;;;;;2.72;2.00;;;;;;;;;;5111373;28;20024;-55
2022/03/08 06:05:29;;;;;;;3.65;2.22;;;;;;;;;;5097716;28;20028;-57
2022/03/08 06:07:54;;;;;;;2.40;2.10;;;;;;;;;;5092241;28;20103;-57
2022/03/08 06:10:20;;;;;;;2.78;2.55;;;;;;;;;;5109837;28;20036;-56
2022/03/08 06:12:45;;;;;;;2.30;2.10;;;;;;;;;;5093590;28;20414;-57
2022/03/08 06:15:11;;;;;;;2.17;1.98;;;;;;;;;;5106878;28;20039;-58
2022/03/08 06:17:36;;;;;;;3.45;3.15;;;;;;;;;;5113035;28;20400;-58
2022/03/08 06:20:01;;;;;;;3.20;2.50;;;;;;;;;;5111690;28;20491;-60
2022/03/08 06:22:27;;;;;;;4.22;3.08;;;;;;;;;;5110547;28;20773;-58
2022/03/08 06:24:52;;;;;;;2.80;2.50;;;;;;;;;;5107192;28;20030;-58
2022/03/08 06:27:17;;;;;;;2.55;2.35;;;;;;;;;;5105121;28;20510;-58
2022/03/08 06:29:42;;;;;;;4.13;3.58;;;;;;;;;;5111348;28;20030;-58
2022/03/08 06:32:08;;;;;;;2.35;2.00;;;;;;;;;;5106013;28;20583;-57
2022/03/08 06:34:33;;;;;;;2.38;1.92;;;;;;;;;;5101607;28;20031;-57
2022/03/08 06:36:58;;;;;;;3.30;1.90;;;;;;;;;;5104919;28;20020;-58
2022/03/08 06:39:24;;;;;;;1.73;1.48;;;;;;;;;;5110402;28;20027;-58
2022/03/08 06:41:49;;;;;;;1.85;1.63;;;;;;;;;;5099910;28;20020;-56
2022/03/08 06:44:14;;;;;;;2.63;2.10;;;;;;;;;;5110870;28;20028;-58
2022/03/08 06:46:44;;;;;;;1.92;1.50;;;;;;;;;;5111621;28;20106;-57
2022/03/08 06:49:09;;;;;;;1.75;1.55;;;;;;;;;;5110864;28;20028;-57
2022/03/08 06:51:35;;;;;;;1.65;1.45;;;;;;;;;;5111732;28;20027;-57
2022/03/08 06:54:00;;;;;;;2.67;2.20;;;;;;;;;;5104696;28;20399;-57
2022/03/08 06:56:25;;;;;;;4.32;1.80;;;;;;;;;;5098851;28;20055;-58
2022/03/08 06:58:50;;;;;;;4.10;2.35;;;;;;;;;;5103328;28;20455;-58
2022/03/08 07:01:16;;;;;;;3.30;2.40;;;;;;;;;;5108394;28;20430;-57
2022/03/08 07:03:41;;;;;;;3.15;2.13;;;;;;;;;;5114736;28;20058;-57
2022/03/08 07:06:06;;;;;;;4.30;2.55;;;;;;;;;;5115603;28;20039;-57
2022/03/08 07:08:31;;;;;;;3.85;2.72;;;;;;;;;;5113202;28;20084;-57
2022/03/08 07:10:57;;;;;;;3.40;3.03;;;;;;;;;;5110202;28;20028;-58
2022/03/08 07:13:22;;;;;;;3.92;2.72;;;;;;;;;;5115537;28;20023;-57
2022/03/08 07:15:48;;;;;;;2.67;2.25;;;;;;;;;;5106682;28;20069;-58
2022/03/08 07:18:13;;;;;;;2.88;1.88;;;;;;;;;;5095603;28;20060;-57
2022/03/08 07:20:38;;;;;;;4.05;2.88;;;;;;;;;;5103474;28;20449;-58
2022/03/08 07:23:03;;;;;;;2.97;2.25;;;;;;;;;;5114569;28;20019;-58
2022/03/08 07:25:29;;;;;;;4.18;2.17;;;;;;;;;;5104096;28;20504;-58
2022/03/08 07:27:55;;;;;;;3.22;1.45;;;;;;;;;;5114953;28;20112;-57
2022/03/08 07:30:20;;;;;;;5.07;2.80;;;;;;;;;;5104905;28;20028;-57
2022/03/08 07:32:45;;;;;;;3.13;2.22;;;;;;;;;;5114811;28;20490;-57
2022/03/08 07:35:11;;;;;;;4.78;2.50;;;;;;;;;;5115200;28;20031;-58
2022/03/08 07:37:37;;;;;;;5.05;3.05;;;;;;;;;;5114717;28;20031;-56
2022/03/08 07:40:06;;;;;;;3.60;2.83;;;;;;;;;;5113741;28;20023;-57
2022/03/08 07:42:32;;;;;;;3.38;2.80;;;;;;;;;;5107328;28;20023;-57
2022/03/08 07:44:57;;;;;;;3.25;2.80;;;;;;;;;;5097135;28;20034;-57
2022/03/08 07:47:22;;;;;;;3.67;3.28;;;;;;;;;;5108598;28;20043;-57
2022/03/08 07:49:47;;;;;;;4.35;2.90;;;;;;;;;;5106274;28;20016;-56
2022/03/08 07:52:13;;;;;;;3.17;2.50;;;;;;;;;;5105863;28;20333;-57
2022/03/08 07:54:38;;;;;;;3.83;2.33;;;;;;;;;;5107198;28;20114;-56
2022/03/08 07:57:03;;;;;;;2.60;2.03;;;;;;;;;;5112394;28;20081;-58
2022/03/08 07:59:29;;;;;;;3.88;2.13;;;;;;;;;;5113891;28;20087;-55
2022/03/08 08:01:54;;;;;;;2.65;2.45;;;;;;;;;;5114590;28;20068;-57
2022/03/08 08:04:20;;;;;;;3.15;2.15;;;;;;;;;;5114227;28;20047;-57
2022/03/08 08:06:45;;;;;;;3.28;2.97;;;;;;;;;;5106799;28;20028;-58
2022/03/08 08:09:12;;;;;;;3.08;2.72;;;;;;;;;;5106403;28;20118;-58
2022/03/08 08:11:37;;;;;;;3.10;2.28;;;;;;;;;;5107618;28;20137;-57
2022/03/08 08:14:02;;;;;;;3.67;2.38;;;;;;;;;;5098106;28;20530;-57
2022/03/08 08:16:28;;;;;;;4.22;3.83;;;;;;;;;;5094742;28;20331;-58
2022/03/08 08:18:53;;;;;;;4.40;2.88;;;;;;;;;;5096236;28;20487;-56
2022/03/08 08:21:18;;;;;;;3.83;3.05;;;;;;;;;;5112909;28;20023;-58
2022/03/08 08:23:43;;;;;;;4.28;3.03;;;;;;;;;;5105507;28;20024;-57
2022/03/08 08:26:09;;;;;;;4.82;3.38;;;;;;;;;;5108153;28;20020;-57
2022/03/08 08:28:34;;;;;;;5.35;3.00;;;;;;;;;;5113652;28;20376;-58
2022/03/08 08:30:59;;;;;;;5.32;3.30;;;;;;;;;;5110811;28;20038;-56
2022/03/08 08:33:24;;;;;;;4.97;2.90;;;;;;;;;;5100546;28;20057;-58
2022/03/08 08:35:50;;;;;;;6.38;4.15;;;;;;;;;;5107256;28;20020;-57
2022/03/08 08:38:15;;;;;;;4.60;3.92;;;;;;;;;;5104624;28;20016;-58
2022/03/08 08:40:41;;;;;;;3.92;3.53;;;;;;;;;;5110231;28;20106;-57
2022/03/08 08:43:06;;;;;;;5.25;3.90;;;;;;;;;;5113060;28;20034;-58
2022/03/08 08:45:32;;;;;;;5.30;3.97;;;;;;;;;;5111736;28;20076;-58
2022/03/08 08:47:57;;;;;;;6.88;4.80;;;;;;;;;;5107452;28;20520;-58
2022/03/08 08:50:22;;;;;;;6.25;4.93;;;;;;;;;;5111704;28;20031;-56
2022/03/08 08:52:47;;;;;;;5.57;4.43;;;;;;;;;;5111054;28;20023;-58
2022/03/08 08:55:13;;;;;;;4.93;4.40;;;;;;;;;;5099237;28;20522;-58
2022/03/08 08:57:38;;;;;;;4.60;3.90;;;;;;;;;;5095657;28;20484;-57
2022/03/08 09:00:04;;;;;;;4.75;4.22;;;;;;;;;;5105523;28;20118;-58
2022/03/08 09:02:29;;;;;;;4.65;4.15;;;;;;;;;;5108652;28;20472;-58
2022/03/08 09:04:55;;;;;;;4.40;3.90;;;;;;;;;;5107671;28;20038;-58
2022/03/08 09:07:20;;;;;;;7.70;4.00;;;;;;;;;;5110415;28;20019;-56
2022/03/08 09:09:47;;;;;;;4.25;3.72;;;;;;;;;;5110419;28;20349;-57
2022/03/08 09:12:12;;;;;;;5.10;3.80;;;;;;;;;;5113132;28;20473;-58
2022/03/08 09:14:37;;;;;;;8.07;5.07;;;;;;;;;;5107714;28;20480;-58
2022/03/08 09:17:03;;;;;;;5.93;3.95;;;;;;;;;;5108500;28;20024;-58
2022/03/08 09:19:28;;;;;;;4.25;3.33;;;;;;;;;;5099737;28;20411;-54
2022/03/08 09:21:54;;;;;;;3.78;2.88;;;;;;;;;;5105458;28;20110;-58
2022/03/08 09:24:19;;;;;;;4.28;2.63;;;;;;;;;;5095390;28;20039;-58
2022/03/08 09:26:44;;;;;;;3.78;3.10;;;;;;;;;;5106299;28;20023;-59
2022/03/08 09:29:09;;;;;;;5.22;3.75;;;;;;;;;;5107761;28;20042;-58
2022/03/08 09:31:34;;;;;;;3.50;2.65;;;;;;;;;;5106184;28;20032;-58
2022/03/08 09:34:00;;;;;;;3.72;2.55;;;;;;;;;;5107257;28;20062;-58
2022/03/08 09:36:25;;;;;;;2.92;2.60;;;;;;;;;;5103918;28;20035;-56
2022/03/08 09:38:50;;;;;;;3.92;2.95;;;;;;;;;;5112737;28;20031;-58
2022/03/08 09:41:15;;;;;;;3.15;2.60;;;;;;;;;;5104944;28;20035;-57
2022/03/08 09:43:41;;;;;;;4.32;2.92;;;;;;;;;;5098874;28;20380;-56
2022/03/08 09:46:07;;;;;;;5.10;2.78;;;;;;;;;;5111232;28;20081;-58
2022/03/08 09:48:32;;;;;;;3.58;2.88;;;;;;;;;;5095950;28;20050;-57
2022/03/08 09:51:01;;;;;;;3.92;2.97;;;;;;;;;;5109151;28;20114;-58
2022/03/08 09:53:29;;;;;;;3.50;2.75;;;;;;;;;;5104094;28;20507;-57
2022/03/08 09:55:58;;;;;;;4.15;2.50;;;;;;;;;;5096450;28;20408;-57
2022/03/08 09:58:23;;;;;;;3.33;2.00;;;;;;;;;;5108792;28;20528;-58
2022/03/08 10:00:51;;;;;;;4.95;2.50;;;;;;;;;;5109334;28;20415;-57
2022/03/08 10:03:17;;;;;;;3.28;2.03;;;;;;;;;;5112245;28;20387;-58
2022/03/08 10:05:43;;;;;;;5.47;2.42;;;;;;;;;;5106364;28;20024;-58
2022/03/08 10:08:10;;;;;;;3.78;2.17;;;;;;;;;;5111367;28;20058;-57
2022/03/08 10:10:42;;;;;;;3.90;2.35;;;;;;;;;;5111593;28;20027;-58
2022/03/08 10:13:09;;;;;;;4.75;2.20;;;;;;;;;;5095179;28;20035;-58
2022/03/08 10:15:34;;;;;;;3.72;1.48;;;;;;;;;;5099198;28;20024;-57
2022/03/08 10:18:00;;;;;;;2.63;1.58;;;;;;;;;;5100721;28;20046;-58
2022/03/08 10:20:30;;;;;;;3.72;1.55;;;;;;;;;;5111065;28;20027;-58
2022/03/08 10:22:55;;;;;;;3.00;1.77;;;;;;;;;;5094951;28;20056;-58
2022/03/08 10:25:22;;;;;;;3.55;2.13;;;;;;;;;;5098918;28;20047;-58
2022/03/08 10:27:53;;;;;;;2.97;1.38;;;;;;;;;;5094714;28;20069;-58
2022/03/08 10:30:19;;;;;;;1.55;1.33;;;;;;;;;;5094972;28;20035;-58
2022/03/08 10:32:45;;;;;;;3.28;1.40;;;;;;;;;;5109084;28;20049;-58
2022/03/08 10:35:11;;;;;;;1.85;1.30;;;;;;;;;;5101398;28;20031;-57
2022/03/08 10:37:37;;;;;;;2.53;1.38;;;;;;;;;;5095275;28;20024;-58
2022/03/08 10:40:04;;;;;;;3.05;1.95;;;;;;;;;;5096527;28;20028;-57
2022/03/08 10:42:31;;;;;;;3.30;1.70;;;;;;;;;;5110940;28;20023;-58
2022/03/08 10:45:07;;;;;;;1.92;1.60;;;;;;;;;;5107799;28;20464;-57
2022/03/08 10:47:45;;;;;;;3.33;1.95;;;;;;;;;;5094237;28;20016;-57
2022/03/08 10:50:12;;;;;;;2.70;1.70;;;;;;;;;;5092169;28;20040;-57
2022/03/08 10:52:38;;;;;;;2.65;1.75;;;;;;;;;;5105243;28;20031;-57
2022/03/08 10:55:14;;;;;;;2.53;1.98;;;;;;;;;;5104510;28;20020;-58
2022/03/08 10:57:40;;;;;;;2.65;1.90;;;;;;;;;;5107252;28;20035;-57
2022/03/08 11:00:11;;;;;;;3.72;2.00;;;;;;;;;;5111038;28;20101;-58
2022/03/08 11:02:46;;;;;;;3.33;1.85;;;;;;;;;;5100217;28;20374;-57
2022/03/08 11:05:11;;;;;;;3.85;1.63;;;;;;;;;;5106950;28;20028;-58
2022/03/08 11:07:37;;;;;;;3.20;1.40;;;;;;;;;;5105295;28;20506;-57
2022/03/08 11:10:06;;;;;;;3.13;1.70;;;;;;;;;;5103782;28;20036;-56
2022/03/08 11:12:32;;;;;;;2.70;1.88;;;;;;;;;;5110652;28;20034;-57
2022/03/08 11:14:57;;;;;;;2.70;2.13;;;;;;;;;;5105892;28;20032;-58
2022/03/08 11:17:23;;;;;;;3.30;1.65;;;;;;;;;;5106368;28;20032;-57
2022/03/08 11:19:49;;;;;;;2.20;1.77;;;;;;;;;;5111073;28;20020;-57
2022/03/08 11:22:15;;;;;;;3.28;1.70;;;;;;;;;;5103538;28;20472;-58
2022/03/08 11:24:40;;;;;;;2.13;1.55;;;;;;;;;;5094045;28;20439;-58
2022/03/08 11:27:05;;;;;;;2.38;1.30;;;;;;;;;;5103385;28;20115;-58
2022/03/08 11:29:33;;;;;;;2.05;1.42;;;;;;;;;;5104636;28;20472;-57
2022/03/08 11:32:00;;;;;;;2.90;1.83;;;;;;;;;;5110769;28;20028;-58
2022/03/08 11:34:33;;;;;;;2.75;1.85;;;;;;;;;;5111200;28;20491;-57
2022/03/08 11:37:03;;;;;;;3.03;2.13;;;;;;;;;;5105792;28;20392;-58
2022/03/08 11:39:29;;;;;;;2.88;1.40;;;;;;;;;;5111528;28;20494;-58
2022/03/08 11:41:56;;;;;;;2.35;1.83;;;;;;;;;;5109474;28;20026;-57
2022/03/08 11:44:26;;;;;;;3.47;1.70;;;;;;;;;;5111635;28;20019;-57
2022/03/08 11:47:02;;;;;;;2.47;1.50;;;;;;;;;;5111885;28;20012;-58
2022/03/08 11:49:37;;;;;;;3.10;1.15;;;;;;;;;;5113087;28;20035;-58
2022/03/08 11:52:09;;;;;;;2.30;0.98;;;;;;;;;;5108788;28;20028;-58
2022/03/08 11:54:36;;;;;;;2.05;1.52;;;;;;;;;;5109142;28;20016;-57
2022/03/08 11:57:01;;;;;;;2.83;1.20;;;;;;;;;;5105351;28;20126;-58
2022/03/08 11:59:27;;;;;;;3.47;1.55;;;;;;;;;;5113198;28;20567;-58
2022/03/08 12:01:54;;;;;;;2.03;1.63;;;;;;;;;;5110468;28;20472;-57
2022/03/08 12:04:19;;;;;;;1.70;1.17;;;;;;;;;;5112191;28;20047;-58
2022/03/08 12:06:48;;;;;;;3.72;1.48;;;;;;;;;;5103958;28;20058;-59
2022/03/08 12:09:15;;;;;;;3.67;1.20;;;;;;;;;;5118493;27;20436;-58
2022/03/08 12:11:45;;;;;;;2.38;1.08;;;;;;;;;;5110380;28;20015;-58
2022/03/08 12:14:11;;;;;;;1.95;1.08;;;;;;;;;;5104413;28;20031;-57
2022/03/08 12:16:39;;;;;;;1.92;1.48;;;;;;;;;;5110787;28;20016;-57
2022/03/08 12:19:05;;;;;;;2.10;1.30;;;;;;;;;;5108812;27;20027;-57
2022/03/08 12:21:31;;;;;;;2.00;1.40;;;;;;;;;;5112508;28;20084;-58
2022/03/08 12:23:56;;;;;;;1.60;1.00;;;;;;;;;;5101756;28;20020;-57
2022/03/08 12:26:22;;;;;;;1.53;1.20;;;;;;;;;;5109189;28;20015;-57
2022/03/08 12:29:05;;;;;;;2.60;1.40;;;;;;;;;;5111551;28;20306;-58
2022/03/08 12:31:31;;;;;;;0.93;0.82;;;;;;;;;;5108281;28;20031;-56
2022/03/08 12:34:00;;;;;;;1.95;1.42;;;;;;;;;;5106843;28;20024;-57
2022/03/08 12:36:29;;;;;;;3.60;1.33;;;;;;;;;;5099914;28;20381;-58
2022/03/08 12:38:54;;;;;;;1.77;1.10;;;;;;;;;;5108036;28;20058;-58
2022/03/08 12:41:25;;;;;;;2.28;1.10;;;;;;;;;;5103896;28;20059;-58
2022/03/08 12:43:58;;;;;;;2.58;1.35;;;;;;;;;;5108090;28;20016;-58
2022/03/08 12:46:23;;;;;;;2.25;0.80;;;;;;;;;;5110633;28;20110;-58
2022/03/08 12:48:51;;;;;;;2.63;1.13;;;;;;;;;;5102547;28;20127;-57
2022/03/08 12:51:16;;;;;;;1.80;1.15;;;;;;;;;;5101768;28;20081;-57
2022/03/08 12:53:41;;;;;;;3.00;1.00;;;;;;;;;;5099271;28;20524;-57
2022/03/08 12:56:11;;;;;;;2.33;0.80;;;;;;;;;;5102164;28;20442;-57
2022/03/08 12:58:45;;;;;;;2.08;0.93;;;;;;;;;;5106270;28;20031;-56
2022/03/08 13:01:11;;;;;;;1.75;1.27;;;;;;;;;;5104077;28;20028;-57
2022/03/08 13:03:41;;;;;;;2.45;1.40;;;;;;;;;;5109455;28;20015;-57
2022/03/08 13:06:08;;;;;;;1.48;0.80;;;;;;;;;;5100377;28;20110;-57
2022/03/08 13:08:34;;;;;;;1.73;0.98;;;;;;;;;;5113121;28;20008;-57
2022/03/08 13:11:00;;;;;;;1.25;0.80;;;;;;;;;;5099689;28;20027;-57
2022/03/08 13:13:25;;;;;;;1.70;0.90;;;;;;;;;;5102377;28;20460;-58
2022/03/08 13:15:51;;;;;;;2.38;1.00;;;;;;;;;;5111274;28;20157;-55
2022/03/08 13:18:20;;;;;;;2.03;1.00;;;;;;;;;;5113371;28;20127;-57
2022/03/08 13:20:48;;;;;;;1.85;1.02;;;;;;;;;;5110865;28;20480;-56
2022/03/08 13:23:23;;;;;;;3.95;0.95;;;;;;;;;;5099456;28;20016;-57
2022/03/08 13:25:50;;;;;;;2.08;1.10;;;;;;;;;;5107682;28;20015;-57
2022/03/08 13:28:15;;;;;;;1.98;1.35;;;;;;;;;;5113641;28;20041;-58
2022/03/08 13:30:42;;;;;;;3.45;1.48;;;;;;;;;;5111141;28;20365;-55
2022/03/08 13:33:25;;;;;;;1.70;1.00;;;;;;;;;;5108384;28;22228;-56
2022/03/08 13:35:55;;;;;;;1.55;1.00;;;;;;;;;;5111827;28;20158;-54
2022/03/08 13:38:25;;;;;;;2.58;1.05;;;;;;;;;;5113247;28;20502;-56
2022/03/08 13:40:51;;;;;;;3.00;1.63;;;;;;;;;;5112775;28;20038;-54
2022/03/08 13:43:19;;;;;;;1.58;1.10;;;;;;;;;;5112421;28;20023;-56
2022/03/08 13:45:45;;;;;;;2.25;0.80;;;;;;;;;;5092453;28;20103;-56
2022/03/08 13:48:11;;;;;;;1.70;1.30;;;;;;;;;;5093119;28;20054;-54
2022/03/08 13:50:36;;;;;;;1.90;0.90;;;;;;;;;;5097328;28;20024;-56
2022/03/08 13:53:09;;;;;;;1.70;0.88;;;;;;;;;;5112936;28;20452;-56
2022/03/08 13:55:34;;;;;;;2.58;0.65;;;;;;;;;;5105231;28;20442;-56
2022/03/08 13:58:00;;;;;;;1.35;0.80;;;;;;;;;;5105927;28;20032;-56
2022/03/08 14:00:26;;;;;;;2.63;0.82;;;;;;;;;;5109712;28;20077;-55
2022/03/08 14:02:55;;;;;;;1.20;0.60;;;;;;;;;;5112572;28;20027;-56
2022/03/08 14:05:20;;;;;;;1.52;0.80;;;;;;;;;;5110751;28;20479;-55
2022/03/08 14:08:00;;;;;;;0.90;0.50;;;;;;;;;;5112499;28;20011;-55
2022/03/08 14:10:25;;;;;;;2.00;0.77;;;;;;;;;;5108827;28;20016;-52
2022/03/08 14:12:51;;;;;;;0.73;0.40;;;;;;;;;;5101407;28;20077;-54
2022/03/08 14:15:17;;;;;;;1.65;0.65;;;;;;;;;;5097122;28;20112;-55
2022/03/08 14:17:42;;;;;;;1.77;0.82;;;;;;;;;;5112580;28;20488;-56
2022/03/08 14:20:14;;;;;;;1.10;0.57;;;;;;;;;;5108464;28;20030;-54
2022/03/08 14:22:58;;;;;;;1.73;0.60;;;;;;;;;;5105447;28;20012;-56
2022/03/08 14:25:23;;;;;;;2.25;0.50;;;;;;;;;;5101237;28;20095;-56
2022/03/08 14:27:49;;;;;;;4.40;0.70;;;;;;;;;;5111976;28;20589;-55
2022/03/08 14:30:19;;;;;;;1.90;0.50;;;;;;;;;;5097825;28;20274;-55
2022/03/08 14:32:44;;;;;;;1.67;0.80;;;;;;;;;;5103160;28;20024;-56
2022/03/08 14:35:12;;;;;;;2.20;0.53;;;;;;;;;;5108275;28;20024;-53
2022/03/08 14:37:37;;;;;;;3.22;0.60;;;;;;;;;;5097326;28;20285;-55